sensor_id;sensor_type;location;lat;lon;timestamp;temperature;humidity
32749;DHT22;19119;52.474;13.710;2023-03-17T00:00:39;4.80;97.30
32749;DHT22;19119;52.474;13.710;2023-03-17T00:03:05;4.70;97.40
32749;DHT22;19119;52.474;13.710;2023-03-17T00:05:34;4.70;97.50
32749;DHT22;19119;52.474;13.710;2023-03-17T00:08:10;4.70;97.50
32749;DHT22;19119;52.474;13.710;2023-03-17T00:10:37;4.60;97.70
32749;DHT22;19119;52.474;13.710;2023-03-17T00:13:03;4.60;97.80
32749;DHT22;19119;52.474;13.710;2023-03-17T00:15:30;4.60;98.00
32749;DHT22;19119;52.474;13.710;2023-03-17T00:17:58;4.50;98.00
32749;DHT22;19119;52.474;13.710;2023-03-17T00:20:26;4.50;97.90
32749;DHT22;19119;52.474;13.710;2023-03-17T00:23:00;4.40;98.40
32749;DHT22;19119;52.474;13.710;2023-03-17T00:25:33;4.40;98.40
32749;DHT22;19119;52.474;13.710;2023-03-17T00:28:02;4.40;98.30
32749;DHT22;19119;52.474;13.710;2023-03-17T00:30:29;4.40;98.60
32749;DHT22;19119;52.474;13.710;2023-03-17T00:32:56;4.40;98.70
32749;DHT22;19119;52.474;13.710;2023-03-17T00:35:27;4.30;98.70
32749;DHT22;19119;52.474;13.710;2023-03-17T00:37:55;4.40;98.90
32749;DHT22;19119;52.474;13.710;2023-03-17T00:40:27;4.30;98.90
32749;DHT22;19119;52.474;13.710;2023-03-17T00:42:57;4.30;99.00
32749;DHT22;19119;52.474;13.710;2023-03-17T00:45:25;4.30;99.10
32749;DHT22;19119;52.474;13.710;2023-03-17T00:47:53;4.20;99.30
32749;DHT22;19119;52.474;13.710;2023-03-17T00:50:22;4.20;99.50
32749;DHT22;19119;52.474;13.710;2023-03-17T00:52:49;4.20;99.60
32749;DHT22;19119;52.474;13.710;2023-03-17T00:55:18;4.20;99.70
32749;DHT22;19119;52.474;13.710;2023-03-17T00:57:45;4.20;99.70
32749;DHT22;19119;52.474;13.710;2023-03-17T01:00:23;4.20;99.80
32749;DHT22;19119;52.474;13.710;2023-03-17T01:02:50;4.10;99.80
32749;DHT22;19119;52.474;13.710;2023-03-17T01:05:16;4.10;99.90
32749;DHT22;19119;52.474;13.710;2023-03-17T01:07:44;4.40;99.90
32749;DHT22;19119;52.474;13.710;2023-03-17T01:10:22;4.20;99.90
32749;DHT22;19119;52.474;13.710;2023-03-17T01:12:48;4.20;99.90
32749;DHT22;19119;52.474;13.710;2023-03-17T01:15:15;4.20;99.90
32749;DHT22;19119;52.474;13.710;2023-03-17T01:17:41;4.10;99.90
32749;DHT22;19119;52.474;13.710;2023-03-17T01:20:20;4.10;99.90
32749;DHT22;19119;52.474;13.710;2023-03-17T01:22:47;4.10;99.90
32749;DHT22;19119;52.474;13.710;2023-03-17T01:25:13;4.10;99.90
32749;DHT22;19119;52.474;13.710;2023-03-17T01:27:40;4.10;99.90
32749;DHT22;19119;52.474;13.710;2023-03-17T01:30:09;4.10;99.90
32749;DHT22;19119;52.474;13.710;2023-03-17T01:32:37;4.10;99.90
32749;DHT22;19119;52.474;13.710;2023-03-17T01:35:03;4.10;99.90
32749;DHT22;19119;52.474;13.710;2023-03-17T01:37:31;4.10;99.90
32749;DHT22;19119;52.474;13.710;2023-03-17T01:39:56;4.10;99.90
32749;DHT22;19119;52.474;13.710;2023-03-17T01:42:22;4.10;99.90
32749;DHT22;19119;52.474;13.710;2023-03-17T01:45:07;4.10;99.90
32749;DHT22;19119;52.474;13.710;2023-03-17T01:47:49;4.10;99.90
32749;DHT22;19119;52.474;13.710;2023-03-17T01:50:15;4.10;99.90
32749;DHT22;19119;52.474;13.710;2023-03-17T01:52:41;4.10;99.90
32749;DHT22;19119;52.474;13.710;2023-03-17T01:55:09;4.00;99.90
32749;DHT22;19119;52.474;13.710;2023-03-17T01:57:39;4.10;99.90
32749;DHT22;19119;52.474;13.710;2023-03-17T02:00:09;4.00;99.90
32749;DHT22;19119;52.474;13.710;2023-03-17T02:02:37;4.10;99.90
32749;DHT22;19119;52.474;13.710;2023-03-17T02:05:05;4.10;99.90
32749;DHT22;19119;52.474;13.710;2023-03-17T02:07:32;4.10;99.90
32749;DHT22;19119;52.474;13.710;2023-03-17T02:09:57;4.10;99.90
32749;DHT22;19119;52.474;13.710;2023-03-17T02:12:24;4.00;99.90
32749;DHT22;19119;52.474;13.710;2023-03-17T02:14:52;4.10;99.90
32749;DHT22;19119;52.474;13.710;2023-03-17T02:17:19;4.00;99.90
32749;DHT22;19119;52.474;13.710;2023-03-17T02:19:48;4.00;99.90
32749;DHT22;19119;52.474;13.710;2023-03-17T02:22:15;3.90;99.90
32749;DHT22;19119;52.474;13.710;2023-03-17T02:24:44;4.00;99.90
32749;DHT22;19119;52.474;13.710;2023-03-17T02:27:18;3.90;99.90
32749;DHT22;19119;52.474;13.710;2023-03-17T02:29:45;4.00;99.90
32749;DHT22;19119;52.474;13.710;2023-03-17T02:32:13;4.00;99.90
32749;DHT22;19119;52.474;13.710;2023-03-17T02:34:39;4.00;99.90
32749;DHT22;19119;52.474;13.710;2023-03-17T02:37:06;4.00;99.90
32749;DHT22;19119;52.474;13.710;2023-03-17T02:39:32;4.00;99.90
32749;DHT22;19119;52.474;13.710;2023-03-17T02:41:58;4.00;99.90
32749;DHT22;19119;52.474;13.710;2023-03-17T02:44:23;4.00;99.90
32749;DHT22;19119;52.474;13.710;2023-03-17T02:46:49;4.00;99.90
32749;DHT22;19119;52.474;13.710;2023-03-17T02:49:15;4.00;99.90
32749;DHT22;19119;52.474;13.710;2023-03-17T02:51:41;4.10;99.90
32749;DHT22;19119;52.474;13.710;2023-03-17T02:54:07;4.00;99.90
32749;DHT22;19119;52.474;13.710;2023-03-17T02:56:33;4.00;99.90
32749;DHT22;19119;52.474;13.710;2023-03-17T02:58:59;3.90;99.70
32749;DHT22;19119;52.474;13.710;2023-03-17T03:01:24;4.00;99.90
32749;DHT22;19119;52.474;13.710;2023-03-17T03:03:51;4.00;99.90
32749;DHT22;19119;52.474;13.710;2023-03-17T03:06:17;4.00;99.90
32749;DHT22;19119;52.474;13.710;2023-03-17T03:08:43;4.00;99.80
32749;DHT22;19119;52.474;13.710;2023-03-17T03:11:09;3.90;99.80
32749;DHT22;19119;52.474;13.710;2023-03-17T03:13:35;3.90;99.60
32749;DHT22;19119;52.474;13.710;2023-03-17T03:16:01;4.00;99.60
32749;DHT22;19119;52.474;13.710;2023-03-17T03:18:27;4.00;99.80
32749;DHT22;19119;52.474;13.710;2023-03-17T03:20:52;3.90;99.80
32749;DHT22;19119;52.474;13.710;2023-03-17T03:23:18;3.90;99.90
32749;DHT22;19119;52.474;13.710;2023-03-17T03:25:44;3.90;99.90
32749;DHT22;19119;52.474;13.710;2023-03-17T03:28:10;3.90;99.70
32749;DHT22;19119;52.474;13.710;2023-03-17T03:30:36;3.90;99.60
32749;DHT22;19119;52.474;13.710;2023-03-17T03:33:02;4.00;99.70
32749;DHT22;19119;52.474;13.710;2023-03-17T03:35:28;3.90;99.50
32749;DHT22;19119;52.474;13.710;2023-03-17T03:37:55;4.00;99.80
32749;DHT22;19119;52.474;13.710;2023-03-17T03:40:22;4.00;99.60
32749;DHT22;19119;52.474;13.710;2023-03-17T03:42:47;4.00;99.50
32749;DHT22;19119;52.474;13.710;2023-03-17T03:45:13;4.00;99.70
32749;DHT22;19119;52.474;13.710;2023-03-17T03:47:38;4.00;99.70
32749;DHT22;19119;52.474;13.710;2023-03-17T03:50:05;4.00;99.60
32749;DHT22;19119;52.474;13.710;2023-03-17T03:52:31;4.00;99.50
32749;DHT22;19119;52.474;13.710;2023-03-17T03:54:56;4.00;99.30
32749;DHT22;19119;52.474;13.710;2023-03-17T03:57:22;4.00;99.50
32749;DHT22;19119;52.474;13.710;2023-03-17T03:59:50;4.00;99.50
32749;DHT22;19119;52.474;13.710;2023-03-17T04:02:16;4.00;99.50
32749;DHT22;19119;52.474;13.710;2023-03-17T04:04:42;4.00;99.60
32749;DHT22;19119;52.474;13.710;2023-03-17T04:07:08;4.00;99.50
32749;DHT22;19119;52.474;13.710;2023-03-17T04:09:34;4.00;99.40
32749;DHT22;19119;52.474;13.710;2023-03-17T04:12:01;4.00;99.70
32749;DHT22;19119;52.474;13.710;2023-03-17T04:14:26;4.00;99.60
32749;DHT22;19119;52.474;13.710;2023-03-17T04:16:52;4.00;99.50
32749;DHT22;19119;52.474;13.710;2023-03-17T04:19:18;4.00;99.30
32749;DHT22;19119;52.474;13.710;2023-03-17T04:21:46;4.00;99.30
32749;DHT22;19119;52.474;13.710;2023-03-17T04:24:11;3.90;99.50
32749;DHT22;19119;52.474;13.710;2023-03-17T04:26:37;3.90;99.40
32749;DHT22;19119;52.474;13.710;2023-03-17T04:29:03;4.00;99.40
32749;DHT22;19119;52.474;13.710;2023-03-17T04:31:29;3.90;99.40
32749;DHT22;19119;52.474;13.710;2023-03-17T04:33:55;4.00;99.60
32749;DHT22;19119;52.474;13.710;2023-03-17T04:36:22;3.90;99.60
32749;DHT22;19119;52.474;13.710;2023-03-17T04:38:48;3.80;99.40
32749;DHT22;19119;52.474;13.710;2023-03-17T04:41:14;3.90;99.30
32749;DHT22;19119;52.474;13.710;2023-03-17T04:43:40;3.80;99.30
32749;DHT22;19119;52.474;13.710;2023-03-17T04:46:07;3.80;99.70
32749;DHT22;19119;52.474;13.710;2023-03-17T04:48:33;3.80;99.70
32749;DHT22;19119;52.474;13.710;2023-03-17T04:50:59;3.80;99.70
32749;DHT22;19119;52.474;13.710;2023-03-17T04:53:25;3.70;99.70
32749;DHT22;19119;52.474;13.710;2023-03-17T04:55:50;3.70;99.60
32749;DHT22;19119;52.474;13.710;2023-03-17T04:58:16;3.70;99.60
32749;DHT22;19119;52.474;13.710;2023-03-17T05:00:42;3.70;99.50
32749;DHT22;19119;52.474;13.710;2023-03-17T05:03:07;3.80;99.60
32749;DHT22;19119;52.474;13.710;2023-03-17T05:05:34;3.70;99.50
32749;DHT22;19119;52.474;13.710;2023-03-17T05:08:00;3.70;99.70
32749;DHT22;19119;52.474;13.710;2023-03-17T05:10:25;3.70;99.90
32749;DHT22;19119;52.474;13.710;2023-03-17T05:12:51;3.70;99.50
32749;DHT22;19119;52.474;13.710;2023-03-17T05:15:16;3.70;99.90
32749;DHT22;19119;52.474;13.710;2023-03-17T05:17:42;3.70;99.70
32749;DHT22;19119;52.474;13.710;2023-03-17T05:20:08;3.60;99.60
32749;DHT22;19119;52.474;13.710;2023-03-17T05:22:35;3.60;99.70
32749;DHT22;19119;52.474;13.710;2023-03-17T05:25:01;3.70;99.50
32749;DHT22;19119;52.474;13.710;2023-03-17T05:27:28;3.60;99.40
32749;DHT22;19119;52.474;13.710;2023-03-17T05:29:54;3.70;99.40
32749;DHT22;19119;52.474;13.710;2023-03-17T05:32:19;3.70;99.40
32749;DHT22;19119;52.474;13.710;2023-03-17T05:34:45;3.70;99.60
32749;DHT22;19119;52.474;13.710;2023-03-17T05:37:11;3.70;99.50
32749;DHT22;19119;52.474;13.710;2023-03-17T05:39:37;3.70;99.70
32749;DHT22;19119;52.474;13.710;2023-03-17T05:42:03;3.70;99.90
32749;DHT22;19119;52.474;13.710;2023-03-17T05:44:35;3.70;99.60
32749;DHT22;19119;52.474;13.710;2023-03-17T05:47:00;3.80;99.60
32749;DHT22;19119;52.474;13.710;2023-03-17T05:49:26;3.80;99.60
32749;DHT22;19119;52.474;13.710;2023-03-17T05:51:54;3.80;99.80
32749;DHT22;19119;52.474;13.710;2023-03-17T05:54:20;3.90;99.50
32749;DHT22;19119;52.474;13.710;2023-03-17T05:56:46;3.90;99.50
32749;DHT22;19119;52.474;13.710;2023-03-17T05:59:12;4.00;99.30
32749;DHT22;19119;52.474;13.710;2023-03-17T06:01:41;4.00;99.20
32749;DHT22;19119;52.474;13.710;2023-03-17T06:04:06;4.00;99.60
32749;DHT22;19119;52.474;13.710;2023-03-17T06:06:32;4.10;99.10
32749;DHT22;19119;52.474;13.710;2023-03-17T06:08:58;4.10;99.20
32749;DHT22;19119;52.474;13.710;2023-03-17T06:11:24;4.10;99.20
32749;DHT22;19119;52.474;13.710;2023-03-17T06:13:51;4.20;99.10
32749;DHT22;19119;52.474;13.710;2023-03-17T06:16:16;4.20;99.10
32749;DHT22;19119;52.474;13.710;2023-03-17T06:18:42;4.60;99.00
32749;DHT22;19119;52.474;13.710;2023-03-17T06:21:08;4.30;99.10
32749;DHT22;19119;52.474;13.710;2023-03-17T06:23:33;4.30;99.20
32749;DHT22;19119;52.474;13.710;2023-03-17T06:25:59;4.30;99.50
32749;DHT22;19119;52.474;13.710;2023-03-17T06:28:24;4.30;99.10
32749;DHT22;19119;52.474;13.710;2023-03-17T06:30:50;4.30;99.00
32749;DHT22;19119;52.474;13.710;2023-03-17T06:33:15;4.40;99.10
32749;DHT22;19119;52.474;13.710;2023-03-17T06:35:42;4.40;99.30
32749;DHT22;19119;52.474;13.710;2023-03-17T06:38:08;4.40;98.90
32749;DHT22;19119;52.474;13.710;2023-03-17T06:40:34;4.50;98.70
32749;DHT22;19119;52.474;13.710;2023-03-17T06:43:00;4.50;98.70
32749;DHT22;19119;52.474;13.710;2023-03-17T06:45:26;4.60;98.90
32749;DHT22;19119;52.474;13.710;2023-03-17T06:47:52;4.60;98.80
32749;DHT22;19119;52.474;13.710;2023-03-17T06:50:17;4.60;98.70
32749;DHT22;19119;52.474;13.710;2023-03-17T06:52:43;4.70;98.90
32749;DHT22;19119;52.474;13.710;2023-03-17T06:55:09;4.70;98.70
32749;DHT22;19119;52.474;13.710;2023-03-17T06:57:35;4.70;98.40
32749;DHT22;19119;52.474;13.710;2023-03-17T07:00:02;4.80;98.80
32749;DHT22;19119;52.474;13.710;2023-03-17T07:02:30;4.90;98.80
32749;DHT22;19119;52.474;13.710;2023-03-17T07:04:56;4.90;98.30
32749;DHT22;19119;52.474;13.710;2023-03-17T07:07:23;4.90;98.70
32749;DHT22;19119;52.474;13.710;2023-03-17T07:09:49;4.90;98.60
32749;DHT22;19119;52.474;13.710;2023-03-17T07:12:16;5.00;98.90
32749;DHT22;19119;52.474;13.710;2023-03-17T07:14:45;5.10;98.40
32749;DHT22;19119;52.474;13.710;2023-03-17T07:17:12;5.20;98.60
32749;DHT22;19119;52.474;13.710;2023-03-17T07:19:39;5.30;98.20
32749;DHT22;19119;52.474;13.710;2023-03-17T07:22:06;5.40;98.20
32749;DHT22;19119;52.474;13.710;2023-03-17T07:24:35;5.50;98.20
32749;DHT22;19119;52.474;13.710;2023-03-17T07:27:01;5.60;97.80
32749;DHT22;19119;52.474;13.710;2023-03-17T07:29:26;5.70;97.60
32749;DHT22;19119;52.474;13.710;2023-03-17T07:31:53;5.80;98.10
32749;DHT22;19119;52.474;13.710;2023-03-17T07:34:19;5.90;97.70
32749;DHT22;19119;52.474;13.710;2023-03-17T07:36:46;6.10;97.70
32749;DHT22;19119;52.474;13.710;2023-03-17T07:39:12;6.30;97.60
32749;DHT22;19119;52.474;13.710;2023-03-17T07:41:37;6.40;97.30
32749;DHT22;19119;52.474;13.710;2023-03-17T07:44:03;6.60;96.80
32749;DHT22;19119;52.474;13.710;2023-03-17T07:46:28;6.80;97.10
32749;DHT22;19119;52.474;13.710;2023-03-17T07:48:54;6.90;96.80
32749;DHT22;19119;52.474;13.710;2023-03-17T07:51:21;7.10;96.90
32749;DHT22;19119;52.474;13.710;2023-03-17T07:53:50;7.30;96.70
32749;DHT22;19119;52.474;13.710;2023-03-17T07:56:16;7.30;96.50
32749;DHT22;19119;52.474;13.710;2023-03-17T07:58:42;7.40;96.50
32749;DHT22;19119;52.474;13.710;2023-03-17T08:01:07;7.60;96.40
32749;DHT22;19119;52.474;13.710;2023-03-17T08:03:34;7.60;95.90
32749;DHT22;19119;52.474;13.710;2023-03-17T08:06:02;7.60;96.20
32749;DHT22;19119;52.474;13.710;2023-03-17T08:08:28;7.50;95.80
32749;DHT22;19119;52.474;13.710;2023-03-17T08:11:01;7.40;95.70
32749;DHT22;19119;52.474;13.710;2023-03-17T08:13:31;7.30;95.50
32749;DHT22;19119;52.474;13.710;2023-03-17T08:15:57;7.50;95.90
32749;DHT22;19119;52.474;13.710;2023-03-17T08:18:22;7.90;95.80
32749;DHT22;19119;52.474;13.710;2023-03-17T08:20:49;8.00;95.50
32749;DHT22;19119;52.474;13.710;2023-03-17T08:23:16;8.10;95.30
32749;DHT22;19119;52.474;13.710;2023-03-17T08:25:42;8.30;95.20
32749;DHT22;19119;52.474;13.710;2023-03-17T08:28:07;8.60;95.20
32749;DHT22;19119;52.474;13.710;2023-03-17T08:30:35;9.20;94.90
32749;DHT22;19119;52.474;13.710;2023-03-17T08:33:01;9.80;94.90
32749;DHT22;19119;52.474;13.710;2023-03-17T08:35:27;10.20;94.00
32749;DHT22;19119;52.474;13.710;2023-03-17T08:37:53;10.30;94.50
32749;DHT22;19119;52.474;13.710;2023-03-17T08:40:19;10.20;94.10
32749;DHT22;19119;52.474;13.710;2023-03-17T08:42:46;10.10;94.10
32749;DHT22;19119;52.474;13.710;2023-03-17T08:45:14;10.00;94.00
32749;DHT22;19119;52.474;13.710;2023-03-17T08:47:40;9.60;94.10
32749;DHT22;19119;52.474;13.710;2023-03-17T08:50:09;9.70;94.40
32749;DHT22;19119;52.474;13.710;2023-03-17T08:52:37;10.00;94.10
32749;DHT22;19119;52.474;13.710;2023-03-17T08:55:03;10.00;93.70
32749;DHT22;19119;52.474;13.710;2023-03-17T08:57:29;9.80;93.70
32749;DHT22;19119;52.474;13.710;2023-03-17T08:59:55;10.60;94.20
32749;DHT22;19119;52.474;13.710;2023-03-17T09:02:21;10.90;93.50
32749;DHT22;19119;52.474;13.710;2023-03-17T09:04:46;11.40;93.70
32749;DHT22;19119;52.474;13.710;2023-03-17T09:07:12;11.10;93.50
32749;DHT22;19119;52.474;13.710;2023-03-17T09:09:38;11.10;93.30
32749;DHT22;19119;52.474;13.710;2023-03-17T09:12:05;10.70;93.30
32749;DHT22;19119;52.474;13.710;2023-03-17T09:14:32;10.70;94.30
32749;DHT22;19119;52.474;13.710;2023-03-17T09:16:57;10.30;93.60
32749;DHT22;19119;52.474;13.710;2023-03-17T09:19:23;10.20;93.70
32749;DHT22;19119;52.474;13.710;2023-03-17T09:21:49;10.10;93.90
32749;DHT22;19119;52.474;13.710;2023-03-17T09:24:16;10.10;93.90
32749;DHT22;19119;52.474;13.710;2023-03-17T09:26:43;10.10;94.20
32749;DHT22;19119;52.474;13.710;2023-03-17T09:29:09;10.10;93.90
32749;DHT22;19119;52.474;13.710;2023-03-17T09:31:35;10.20;94.60
32749;DHT22;19119;52.474;13.710;2023-03-17T09:34:04;10.30;94.50
32749;DHT22;19119;52.474;13.710;2023-03-17T09:36:31;10.50;94.30
32749;DHT22;19119;52.474;13.710;2023-03-17T09:39:00;10.80;94.70
32749;DHT22;19119;52.474;13.710;2023-03-17T09:44:45;10.70;94.50
32749;DHT22;19119;52.474;13.710;2023-03-17T09:47:27;10.90;94.10
32749;DHT22;19119;52.474;13.710;2023-03-17T09:50:00;10.60;94.00
32749;DHT22;19119;52.474;13.710;2023-03-17T09:52:29;10.90;94.30
32749;DHT22;19119;52.474;13.710;2023-03-17T09:54:56;11.10;94.30
32749;DHT22;19119;52.474;13.710;2023-03-17T09:57:39;11.40;94.40
32749;DHT22;19119;52.474;13.710;2023-03-17T10:00:12;11.50;94.00
32749;DHT22;19119;52.474;13.710;2023-03-17T10:02:39;11.70;93.70
32749;DHT22;19119;52.474;13.710;2023-03-17T10:07:44;12.40;93.00
32749;DHT22;19119;52.474;13.710;2023-03-17T10:13:09;12.60;93.00
32749;DHT22;19119;52.474;13.710;2023-03-17T10:16:08;12.70;92.80
32749;DHT22;19119;52.474;13.710;2023-03-17T10:18:45;12.90;93.10
32749;DHT22;19119;52.474;13.710;2023-03-17T10:21:19;12.80;92.40
32749;DHT22;19119;52.474;13.710;2023-03-17T10:23:47;13.30;93.20
32749;DHT22;19119;52.474;13.710;2023-03-17T10:26:23;13.50;93.10
32749;DHT22;19119;52.474;13.710;2023-03-17T10:28:52;13.50;92.20
32749;DHT22;19119;52.474;13.710;2023-03-17T10:31:26;13.70;92.40
32749;DHT22;19119;52.474;13.710;2023-03-17T10:33:55;14.00;93.20
32749;DHT22;19119;52.474;13.710;2023-03-17T10:36:36;13.90;93.20
32749;DHT22;19119;52.474;13.710;2023-03-17T10:39:06;14.00;92.90
32749;DHT22;19119;52.474;13.710;2023-03-17T10:41:37;13.90;92.20
32749;DHT22;19119;52.474;13.710;2023-03-17T10:44:08;13.70;92.40
32749;DHT22;19119;52.474;13.710;2023-03-17T10:46:37;13.90;92.20
32749;DHT22;19119;52.474;13.710;2023-03-17T10:49:15;13.70;92.30
32749;DHT22;19119;52.474;13.710;2023-03-17T10:51:44;13.90;92.80
32749;DHT22;19119;52.474;13.710;2023-03-17T10:54:16;13.90;92.50
32749;DHT22;19119;52.474;13.710;2023-03-17T10:56:45;13.80;92.30
32749;DHT22;19119;52.474;13.710;2023-03-17T10:59:36;14.30;92.20
32749;DHT22;19119;52.474;13.710;2023-03-17T11:02:20;14.60;92.90
32749;DHT22;19119;52.474;13.710;2023-03-17T11:04:47;14.40;91.90
32749;DHT22;19119;52.474;13.710;2023-03-17T11:07:25;14.50;92.30
32749;DHT22;19119;52.474;13.710;2023-03-17T11:10:00;14.30;92.10
32749;DHT22;19119;52.474;13.710;2023-03-17T11:12:38;14.30;92.40
32749;DHT22;19119;52.474;13.710;2023-03-17T11:15:08;14.40;92.20
32749;DHT22;19119;52.474;13.710;2023-03-17T11:17:41;14.40;92.20
32749;DHT22;19119;52.474;13.710;2023-03-17T11:20:30;14.50;92.00
32749;DHT22;19119;52.474;13.710;2023-03-17T11:23:05;15.00;93.10
32749;DHT22;19119;52.474;13.710;2023-03-17T11:25:40;14.50;91.70
32749;DHT22;19119;52.474;13.710;2023-03-17T11:28:17;14.50;92.10
32749;DHT22;19119;52.474;13.710;2023-03-17T11:36:08;14.40;91.70
32749;DHT22;19119;52.474;13.710;2023-03-17T11:38:59;14.40;92.00
32749;DHT22;19119;52.474;13.710;2023-03-17T11:41:57;14.50;92.30
32749;DHT22;19119;52.474;13.710;2023-03-17T11:44:31;14.60;91.60
32749;DHT22;19119;52.474;13.710;2023-03-17T11:47:34;14.70;91.80
32749;DHT22;19119;52.474;13.710;2023-03-17T11:50:27;14.40;91.00
32749;DHT22;19119;52.474;13.710;2023-03-17T11:53:10;14.80;91.40
32749;DHT22;19119;52.474;13.710;2023-03-17T11:58:42;15.40;91.80
32749;DHT22;19119;52.474;13.710;2023-03-17T12:01:14;15.50;91.00
32749;DHT22;19119;52.474;13.710;2023-03-17T12:06:45;15.60;91.10
32749;DHT22;19119;52.474;13.710;2023-03-17T12:09:24;15.80;91.50
32749;DHT22;19119;52.474;13.710;2023-03-17T12:11:52;15.70;90.80
32749;DHT22;19119;52.474;13.710;2023-03-17T12:14:31;15.30;90.80
32749;DHT22;19119;52.474;13.710;2023-03-17T12:22:56;14.90;91.40
32749;DHT22;19119;52.474;13.710;2023-03-17T12:25:47;15.20;91.60
32749;DHT22;19119;52.474;13.710;2023-03-17T12:28:19;15.10;91.10
32749;DHT22;19119;52.474;13.710;2023-03-17T12:31:10;15.00;90.90
32749;DHT22;19119;52.474;13.710;2023-03-17T12:36:11;15.10;91.00
32749;DHT22;19119;52.474;13.710;2023-03-17T12:38:55;15.20;90.90
32749;DHT22;19119;52.474;13.710;2023-03-17T12:41:43;15.30;91.30
32749;DHT22;19119;52.474;13.710;2023-03-17T12:47:35;15.30;91.30
32749;DHT22;19119;52.474;13.710;2023-03-17T12:53:30;15.40;90.80
32749;DHT22;19119;52.474;13.710;2023-03-17T12:56:03;15.40;90.90
32749;DHT22;19119;52.474;13.710;2023-03-17T12:58:38;15.40;91.10
32749;DHT22;19119;52.474;13.710;2023-03-17T13:04:01;15.40;90.80
32749;DHT22;19119;52.474;13.710;2023-03-17T13:06:32;15.70;91.50
32749;DHT22;19119;52.474;13.710;2023-03-17T13:11:59;15.60;90.40
32749;DHT22;19119;52.474;13.710;2023-03-17T13:14:42;15.60;91.30
32749;DHT22;19119;52.474;13.710;2023-03-17T13:24:50;15.60;91.30
32749;DHT22;19119;52.474;13.710;2023-03-17T13:29:58;15.70;90.70
32749;DHT22;19119;52.474;13.710;2023-03-17T13:37:32;15.40;90.80
32749;DHT22;19119;52.474;13.710;2023-03-17T13:42:46;15.20;91.00
32749;DHT22;19119;52.474;13.710;2023-03-17T13:50:56;14.90;91.00
32749;DHT22;19119;52.474;13.710;2023-03-17T13:53:26;14.90;91.00
32749;DHT22;19119;52.474;13.710;2023-03-17T13:56:09;15.20;91.10
32749;DHT22;19119;52.474;13.710;2023-03-17T13:58:56;15.30;91.60
32749;DHT22;19119;52.474;13.710;2023-03-17T14:01:22;15.40;91.10
32749;DHT22;19119;52.474;13.710;2023-03-17T14:03:49;15.40;91.60
32749;DHT22;19119;52.474;13.710;2023-03-17T14:06:18;15.10;90.70
32749;DHT22;19119;52.474;13.710;2023-03-17T14:08:53;15.20;91.00
32749;DHT22;19119;52.474;13.710;2023-03-17T14:11:27;15.00;90.70
32749;DHT22;19119;52.474;13.710;2023-03-17T14:14:11;15.00;90.60
32749;DHT22;19119;52.474;13.710;2023-03-17T14:16:45;15.30;91.00
32749;DHT22;19119;52.474;13.710;2023-03-17T14:19:20;15.30;91.00
32749;DHT22;19119;52.474;13.710;2023-03-17T14:21:46;15.40;90.40
32749;DHT22;19119;52.474;13.710;2023-03-17T14:24:19;15.60;90.80
32749;DHT22;19119;52.474;13.710;2023-03-17T14:26:46;15.60;90.60
32749;DHT22;19119;52.474;13.710;2023-03-17T14:29:14;15.60;90.20
32749;DHT22;19119;52.474;13.710;2023-03-17T14:31:41;15.70;90.40
32749;DHT22;19119;52.474;13.710;2023-03-17T14:34:12;15.80;90.50
32749;DHT22;19119;52.474;13.710;2023-03-17T14:36:41;15.80;90.40
32749;DHT22;19119;52.474;13.710;2023-03-17T14:39:20;15.70;90.50
32749;DHT22;19119;52.474;13.710;2023-03-17T14:41:59;15.80;90.60
32749;DHT22;19119;52.474;13.710;2023-03-17T14:44:26;15.90;90.00
32749;DHT22;19119;52.474;13.710;2023-03-17T14:47:00;15.80;89.80
32749;DHT22;19119;52.474;13.710;2023-03-17T14:49:26;16.10;90.10
32749;DHT22;19119;52.474;13.710;2023-03-17T14:51:54;16.00;90.10
32749;DHT22;19119;52.474;13.710;2023-03-17T14:54:26;15.70;90.10
32749;DHT22;19119;52.474;13.710;2023-03-17T14:56:57;15.90;90.00
32749;DHT22;19119;52.474;13.710;2023-03-17T14:59:33;15.80;90.20
32749;DHT22;19119;52.474;13.710;2023-03-17T15:02:06;15.60;90.30
32749;DHT22;19119;52.474;13.710;2023-03-17T15:04:51;15.50;90.70
32749;DHT22;19119;52.474;13.710;2023-03-17T15:07:30;15.10;90.10
32749;DHT22;19119;52.474;13.710;2023-03-17T15:10:00;15.10;90.70
32749;DHT22;19119;52.474;13.710;2023-03-17T15:12:27;15.00;90.50
32749;DHT22;19119;52.474;13.710;2023-03-17T15:14:57;14.80;90.00
32749;DHT22;19119;52.474;13.710;2023-03-17T15:17:31;14.70;90.60
32749;DHT22;19119;52.474;13.710;2023-03-17T15:20:27;14.60;90.50
32749;DHT22;19119;52.474;13.710;2023-03-17T15:23:01;14.70;91.20
32749;DHT22;19119;52.474;13.710;2023-03-17T15:27:57;14.60;90.70
32749;DHT22;19119;52.474;13.710;2023-03-17T15:30:24;14.60;90.60
32749;DHT22;19119;52.474;13.710;2023-03-17T15:33:01;14.50;90.80
32749;DHT22;19119;52.474;13.710;2023-03-17T15:35:29;14.40;90.50
32749;DHT22;19119;52.474;13.710;2023-03-17T15:37:55;14.40;90.40
32749;DHT22;19119;52.474;13.710;2023-03-17T15:40:21;14.30;90.70
32749;DHT22;19119;52.474;13.710;2023-03-17T15:42:46;14.30;91.30
32749;DHT22;19119;52.474;13.710;2023-03-17T15:45:16;14.20;90.60
32749;DHT22;19119;52.474;13.710;2023-03-17T15:47:43;14.20;90.90
32749;DHT22;19119;52.474;13.710;2023-03-17T15:50:16;14.10;91.00
32749;DHT22;19119;52.474;13.710;2023-03-17T15:52:43;14.00;90.80
32749;DHT22;19119;52.474;13.710;2023-03-17T15:55:20;14.00;91.20
32749;DHT22;19119;52.474;13.710;2023-03-17T15:57:46;14.00;90.90
32749;DHT22;19119;52.474;13.710;2023-03-17T16:00:19;14.00;90.90
32749;DHT22;19119;52.474;13.710;2023-03-17T16:02:46;14.00;90.90
32749;DHT22;19119;52.474;13.710;2023-03-17T16:05:22;14.00;90.90
32749;DHT22;19119;52.474;13.710;2023-03-17T16:07:48;13.90;91.50
32749;DHT22;19119;52.474;13.710;2023-03-17T16:10:32;13.90;91.50
32749;DHT22;19119;52.474;13.710;2023-03-17T16:13:01;13.80;91.70
32749;DHT22;19119;52.474;13.710;2023-03-17T16:15:28;13.80;91.70
32749;DHT22;19119;52.474;13.710;2023-03-17T16:18:03;13.70;92.30
32749;DHT22;19119;52.474;13.710;2023-03-17T16:20:31;13.60;92.60
32749;DHT22;19119;52.474;13.710;2023-03-17T16:23:03;13.60;92.80
32749;DHT22;19119;52.474;13.710;2023-03-17T16:25:31;13.50;93.00
32749;DHT22;19119;52.474;13.710;2023-03-17T16:27:58;13.80;93.20
32749;DHT22;19119;52.474;13.710;2023-03-17T16:30:27;13.40;93.20
32749;DHT22;19119;52.474;13.710;2023-03-17T16:32:55;13.20;93.20
32749;DHT22;19119;52.474;13.710;2023-03-17T16:35:23;13.20;93.40
32749;DHT22;19119;52.474;13.710;2023-03-17T16:37:50;13.20;93.10
32749;DHT22;19119;52.474;13.710;2023-03-17T16:40:22;13.10;93.30
32749;DHT22;19119;52.474;13.710;2023-03-17T16:42:49;13.00;93.60
32749;DHT22;19119;52.474;13.710;2023-03-17T16:45:24;12.90;93.10